createdAt,value
2019-01-21T06:24:16.446Z,33.67
2019-01-21T06:27:22.754Z,37.20
2019-01-21T06:30:42.697Z,29.00
2019-01-21T06:33:47.522Z,31.70
2019-01-21T06:36:33.619Z,31.07
2019-01-21T06:39:32.598Z,33.93
2019-01-21T06:42:35.412Z,32.67
2019-01-21T06:45:48.267Z,31.73
2019-01-21T06:48:54.278Z,33.27
2019-01-21T06:51:49.319Z,33.07
2019-01-21T06:54:55.331Z,37.27
2019-01-21T06:58:24.879Z,33.53
2019-01-21T07:01:44.184Z,33.67
2019-01-21T07:05:10.537Z,27.23
2019-01-21T07:08:19.451Z,31.00
2019-01-21T07:11:08.340Z,30.33
2019-01-21T07:13:54.302Z,41.53
2019-01-21T07:16:56.305Z,42.67
2019-01-21T07:19:46.396Z,55.23
2019-01-21T07:23:02.355Z,43.07
2019-01-21T07:26:37.987Z,28.33
2019-01-21T07:29:40.466Z,27.50
2019-01-21T07:32:40.577Z,33.27
2019-01-21T07:35:55.678Z,33.10
2019-01-21T07:39:04.079Z,33.03
2019-01-21T07:41:52.970Z,30.87
2019-01-21T07:45:02.543Z,31.50
2019-01-21T07:47:47.686Z,33.33
2019-01-21T07:51:03.509Z,30.43
2019-01-21T07:54:22.915Z,28.53
2019-01-21T07:57:46.430Z,26.47
2019-01-21T08:00:58.125Z,35.50
2019-01-21T08:03:56.869Z,30.20
2019-01-21T08:06:45.386Z,28.97
2019-01-21T08:10:11.732Z,28.97
2019-01-21T08:13:27.139Z,31.67
2019-01-21T08:16:33.994Z,30.50
2019-01-21T08:19:35.804Z,30.33
2019-01-21T08:22:51.771Z,31.63
2019-01-21T08:25:42.614Z,34.93
2019-01-21T08:28:52.834Z,31.40
2019-01-21T08:31:56.796Z,36.00
2019-01-21T08:34:46.366Z,30.30
2019-01-21T08:37:50.389Z,35.57
2019-01-21T08:40:51.986Z,33.33
2019-01-21T08:44:06.347Z,33.63
2019-01-21T08:47:23.659Z,34.73
2019-01-21T08:50:31.723Z,37.50
2019-01-21T08:54:03.792Z,33.80
2019-01-21T08:57:20.767Z,31.87
2019-01-21T09:00:24.719Z,30.80
2019-01-21T09:03:35.419Z,29.87
2019-01-21T09:06:24.240Z,34.23
2019-01-21T09:09:28.995Z,36.50
2019-01-21T09:12:52.070Z,35.73
2019-01-21T09:16:03.017Z,36.43
2019-01-21T09:19:09.197Z,33.00
2019-01-21T09:22:26.261Z,31.23
2019-01-21T09:25:30.122Z,34.87
2019-01-21T09:28:39.994Z,32.47
2019-01-21T09:31:56.986Z,30.83
2019-01-21T09:35:11.493Z,29.50
2019-01-21T09:38:20.316Z,36.00
2019-01-21T09:41:39.795Z,30.17
2019-01-21T09:44:33.831Z,29.43
2019-01-21T09:47:05.347Z,32.40
2019-01-21T09:49:36.877Z,38.20
2019-01-21T09:52:16.055Z,32.77
2019-01-21T09:54:49.186Z,35.27
2019-01-21T09:57:24.162Z,34.93
2019-01-21T10:00:00.551Z,34.97
2019-01-21T10:02:36.504Z,34.70
2019-01-21T10:05:16.244Z,39.10
2019-01-21T10:08:29.045Z,36.53
2019-01-21T10:11:44.143Z,37.87
2019-01-21T10:14:58.179Z,35.17
2019-01-21T10:18:12.834Z,31.60
2019-01-21T10:21:31.474Z,32.07
2019-01-21T10:24:51.186Z,32.20
2019-01-21T10:27:57.243Z,35.87
2019-01-21T10:30:59.119Z,37.73
2019-01-21T10:34:13.984Z,35.53
2019-01-21T10:37:23.946Z,39.00
2019-01-21T10:40:08.148Z,37.43
2019-01-21T10:42:56.947Z,36.70
2019-01-21T10:46:07.914Z,39.83
2019-01-21T10:48:54.904Z,38.80
2019-01-21T10:52:12.581Z,37.27
2019-01-21T10:55:12.180Z,33.50
2019-01-21T10:58:19.071Z,36.70
2019-01-21T11:01:27.869Z,37.90
2019-01-21T11:04:57.494Z,36.10
2019-01-21T11:07:50.035Z,38.57
2019-01-21T11:10:42.583Z,37.50
2019-01-21T11:13:49.530Z,36.03
2019-01-21T11:16:51.561Z,40.07
2019-01-21T11:20:07.800Z,35.13
2019-01-21T11:23:06.916Z,36.73
2019-01-21T11:26:18.217Z,40.17
2019-01-21T11:29:38.083Z,41.37
2019-01-21T11:32:40.343Z,44.13
2019-01-21T11:35:51.707Z,37.20
2019-01-21T11:38:49.698Z,40.70
2019-01-21T11:41:52.043Z,38.03
2019-01-21T11:44:51.655Z,40.43
2019-01-21T11:47:50.350Z,40.73
2019-01-21T11:51:02.082Z,41.60
2019-01-21T11:54:19.331Z,36.53
2019-01-21T11:57:30.355Z,36.00
2019-01-21T12:00:11.391Z,37.07
2019-01-21T12:02:58.227Z,37.77
2019-01-21T12:05:51.559Z,35.57
2019-01-21T12:08:54.275Z,35.37
2019-01-21T12:12:00.687Z,39.77
2019-01-21T12:15:19.764Z,35.40
2019-01-21T12:18:23.343Z,36.03
2019-01-21T12:21:46.834Z,36.07
2019-01-21T12:24:35.596Z,33.97
2019-01-21T12:27:33.951Z,39.17
2019-01-21T12:30:40.438Z,38.90
2019-01-21T12:33:47.742Z,38.57
2019-01-21T12:36:46.195Z,37.57
2019-01-21T12:39:40.558Z,38.67
2019-01-21T12:42:44.164Z,33.30
2019-01-21T12:45:45.561Z,33.97
2019-01-21T12:48:44.619Z,32.37
2019-01-21T12:51:42.027Z,37.43
2019-01-21T12:54:45.429Z,32.90
2019-01-21T12:58:01.239Z,34.13
2019-01-21T13:00:57.558Z,32.03
2019-01-21T13:04:01.659Z,37.43
2019-01-21T13:07:22.830Z,35.13
2019-01-21T13:10:31.688Z,35.90
2019-01-21T13:13:44.967Z,40.17
2019-01-21T13:16:34.574Z,38.40
2019-01-21T13:19:51.829Z,39.57
2019-01-21T13:22:57.843Z,36.43
2019-01-21T13:26:17.134Z,36.57
2019-01-21T13:29:29.262Z,33.50
2019-01-21T13:32:49.755Z,38.20
2019-01-21T13:35:58.154Z,34.87
2019-01-21T13:39:24.503Z,36.00
2019-01-21T13:42:08.355Z,34.00
2019-01-21T13:45:04.698Z,35.93
2019-01-21T13:48:12.983Z,33.30
2019-01-21T13:51:29.297Z,39.60
2019-01-21T13:54:49.567Z,34.30
2019-01-21T13:58:02.596Z,35.50
2019-01-21T14:01:00.975Z,30.73
2019-01-21T14:03:52.819Z,36.93
2019-01-21T14:06:37.395Z,36.17
2019-01-21T14:09:45.591Z,34.03
2019-01-21T14:12:37.020Z,31.53
2019-01-21T14:15:42.891Z,33.23
2019-01-21T14:18:59.061Z,28.17
2019-01-21T14:21:47.102Z,28.10
2019-01-21T14:25:07.695Z,35.20
2019-01-21T14:28:05.506Z,27.30
2019-01-21T14:31:04.782Z,31.53
2019-01-21T14:33:52.920Z,31.50
2019-01-21T14:36:54.396Z,29.70
2019-01-21T14:39:41.962Z,30.93
2019-01-21T14:42:23.617Z,30.70
2019-01-21T14:45:40.974Z,31.87
2019-01-21T14:48:48.226Z,33.10
2019-01-21T14:52:11.770Z,31.17
2019-01-21T14:54:58.110Z,31.53
2019-01-21T14:58:20.324Z,28.97
2019-01-21T15:01:17.177Z,33.07
2019-01-21T15:04:01.875Z,30.17
2019-01-21T15:06:57.682Z,37.57
2019-01-21T15:10:21.929Z,37.90
2019-01-21T15:13:32.725Z,37.87
2019-01-21T15:16:23.983Z,35.43
2019-01-21T15:19:01.245Z,36.57
2019-01-21T15:22:26.705Z,32.93
2019-01-21T15:25:25.812Z,33.73
2019-01-21T15:28:34.601Z,35.77
2019-01-21T15:31:23.350Z,35.10
2019-01-21T15:34:31.950Z,32.80
2019-01-21T15:37:31.238Z,35.90
2019-01-21T15:40:23.007Z,36.33
2019-01-21T15:43:09.339Z,34.40
2019-01-21T15:45:53.353Z,34.97
2019-01-21T15:48:58.270Z,33.77
2019-01-21T15:51:53.140Z,35.33
2019-01-21T15:55:10.711Z,31.90
2019-01-21T15:58:05.442Z,33.67
2019-01-21T16:01:15.423Z,34.57
2019-01-21T16:04:10.145Z,36.47
2019-01-21T16:07:02.859Z,36.33
2019-01-21T16:10:22.423Z,38.30
2019-01-21T16:13:15.315Z,39.50
2019-01-21T16:16:13.867Z,35.70
2019-01-21T16:19:13.594Z,40.57
2019-01-21T16:22:25.276Z,41.00
2019-01-21T16:25:35.584Z,37.03
2019-01-21T16:28:30.695Z,39.33
2019-01-21T16:31:16.606Z,43.67
2019-01-21T16:34:39.736Z,40.37
2019-01-21T16:38:07.494Z,44.33
2019-01-21T16:41:24.027Z,44.43
2019-01-21T16:43:56.695Z,40.73
2019-01-21T16:46:29.641Z,39.67
2019-01-21T16:49:02.299Z,35.77
2019-01-21T16:51:34.967Z,45.63
2019-01-21T16:54:07.651Z,45.03
2019-01-21T16:56:40.327Z,42.87
2019-01-21T16:59:13.015Z,41.87
2019-01-21T17:01:45.677Z,41.73
2019-01-21T17:04:18.606Z,44.67
2019-01-21T17:06:51.293Z,49.93
2019-01-21T17:09:24.007Z,41.50
2019-01-21T17:11:56.677Z,44.43
2019-01-21T17:14:29.325Z,45.40
2019-01-21T17:17:02.042Z,40.83
2019-01-21T17:19:34.987Z,47.17
2019-01-21T17:22:07.654Z,39.87
2019-01-21T17:24:40.331Z,43.43
2019-01-21T17:27:13.004Z,43.50
2019-01-21T17:29:45.715Z,41.00
2019-01-21T17:32:18.346Z,41.23
2019-01-21T17:34:51.275Z,38.77
2019-01-21T17:37:23.931Z,40.93
2019-01-21T17:39:56.602Z,37.13
2019-01-21T17:42:29.262Z,38.77
2019-01-21T17:45:01.927Z,37.13
2019-01-21T17:47:34.579Z,37.53
2019-01-21T17:50:09.518Z,38.57
2019-01-21T17:52:42.189Z,35.70
2019-01-21T17:55:15.021Z,36.13
2019-01-21T17:57:47.671Z,37.00
2019-01-21T18:00:20.336Z,38.17
2019-01-21T18:02:53.017Z,35.43
2019-01-21T18:05:25.685Z,40.47
2019-01-21T18:07:58.344Z,36.80
2019-01-21T18:10:31.477Z,41.00
2019-01-21T18:13:04.249Z,36.93
2019-01-21T18:15:36.912Z,36.50
2019-01-21T18:18:09.579Z,34.93
2019-01-21T18:20:42.247Z,37.37
2019-01-21T18:23:15.243Z,40.17
2019-01-21T18:25:47.911Z,39.53
2019-01-21T18:28:20.582Z,39.90
2019-01-21T18:30:53.242Z,40.00
2019-01-21T18:33:25.906Z,40.70
2019-01-21T18:35:58.802Z,36.43
2019-01-21T18:38:31.455Z,38.40
2019-01-21T18:41:04.171Z,39.17
2019-01-21T18:43:36.911Z,41.27
2019-01-21T18:46:09.592Z,38.40
2019-01-21T18:48:42.250Z,40.20
2019-01-21T18:51:14.922Z,37.87
2019-01-21T18:53:47.584Z,36.50
2019-01-21T18:56:20.267Z,35.23
2019-01-21T18:58:52.924Z,41.23
2019-01-21T19:01:25.614Z,35.77
2019-01-21T19:03:58.277Z,36.23
2019-01-21T19:06:30.951Z,34.60
2019-01-21T19:09:06.626Z,33.17
2019-01-21T19:11:39.414Z,39.83
2019-01-21T19:14:12.098Z,35.83
2019-01-21T19:16:44.777Z,33.27
2019-01-21T19:19:17.432Z,40.17
2019-01-21T19:21:53.684Z,41.07
2019-01-21T19:24:24.567Z,46.07
2019-01-21T19:26:57.608Z,37.23
2019-01-21T19:29:30.509Z,36.47
2019-01-21T19:32:03.367Z,39.90
2019-01-21T19:34:36.019Z,42.03
2019-01-21T19:37:08.707Z,39.40
2019-01-21T19:39:41.388Z,45.17
2019-01-21T19:42:17.207Z,46.20
2019-01-21T19:44:50.468Z,44.83
2019-01-21T19:47:23.140Z,46.50
2019-01-21T19:49:55.806Z,50.37
2019-01-21T19:52:28.518Z,59.67
2019-01-21T19:55:01.167Z,56.27
2019-01-21T19:57:33.823Z,48.73
2019-01-21T20:00:10.622Z,45.73
2019-01-21T20:02:44.529Z,41.13
2019-01-21T20:05:17.486Z,47.00
2019-01-21T20:07:50.201Z,47.60
2019-01-21T20:10:22.873Z,55.10
2019-01-21T20:12:55.596Z,49.27
2019-01-21T20:15:28.279Z,55.00
2019-01-21T20:18:01.032Z,49.07
2019-01-21T20:20:36.519Z,49.80
2019-01-21T20:23:12.501Z,47.43
2019-01-21T20:25:45.160Z,50.43
2019-01-21T20:28:17.829Z,51.10
2019-01-21T20:30:50.622Z,48.03
2019-01-21T20:33:23.306Z,50.13
2019-01-21T20:35:56.273Z,49.40
2019-01-21T20:38:29.022Z,49.17
2019-01-21T20:41:01.668Z,52.07
2019-01-21T20:43:34.583Z,54.13
2019-01-21T20:46:07.347Z,54.10
2019-01-21T20:48:40.379Z,64.70
2019-01-21T20:51:13.271Z,55.37
2019-01-21T20:53:45.959Z,61.97
2019-01-21T20:56:18.633Z,71.83
2019-01-21T20:58:51.317Z,96.37
2019-01-21T21:01:23.975Z,170.13
2019-01-21T21:03:56.676Z,73.90
2019-01-21T21:06:29.951Z,59.87
2019-01-21T21:09:04.199Z,64.17
2019-01-21T21:11:36.871Z,56.03
2019-01-21T21:14:09.586Z,53.77
2019-01-21T21:16:42.311Z,48.43
2019-01-21T21:19:15.063Z,55.43
2019-01-21T21:21:47.710Z,55.23
2019-01-21T21:24:21.048Z,51.10
2019-01-21T21:26:53.695Z,48.43
2019-01-21T21:29:26.695Z,49.00
2019-01-21T21:31:59.850Z,52.53
2019-01-21T21:34:32.525Z,50.53
2019-01-21T21:37:05.585Z,50.17
2019-01-21T21:39:38.535Z,52.93
2019-01-21T21:42:11.308Z,51.03
2019-01-21T21:44:43.970Z,53.50
2019-01-21T21:47:19.855Z,48.00
2019-01-21T21:49:52.556Z,50.83
2019-01-21T21:52:27.863Z,54.53
